sensor_id;sensor_type;location;lat;lon;timestamp;P1;durP1;ratioP1;P2;durP2;ratioP2
54372;SDS011;69157;53.094;10.016;2024-01-30T00:01:59;3.00;;;1.77;;
54372;SDS011;69157;53.094;10.016;2024-01-30T00:04:25;5.18;;;2.42;;
54372;SDS011;69157;53.094;10.016;2024-01-30T00:06:51;5.22;;;2.42;;
54372;SDS011;69157;53.094;10.016;2024-01-30T00:09:18;4.40;;;2.60;;
54372;SDS011;69157;53.094;10.016;2024-01-30T00:11:44;4.22;;;2.08;;
54372;SDS011;69157;53.094;10.016;2024-01-30T00:14:10;3.00;;;2.20;;
54372;SDS011;69157;53.094;10.016;2024-01-30T00:16:36;4.53;;;2.10;;
54372;SDS011;69157;53.094;10.016;2024-01-30T00:19:02;5.80;;;2.50;;
54372;SDS011;69157;53.094;10.016;2024-01-30T00:21:28;3.03;;;2.35;;
54372;SDS011;69157;53.094;10.016;2024-01-30T00:23:54;7.10;;;3.10;;
54372;SDS011;69157;53.094;10.016;2024-01-30T00:26:20;6.88;;;3.10;;
54372;SDS011;69157;53.094;10.016;2024-01-30T00:28:46;3.60;;;2.58;;
54372;SDS011;69157;53.094;10.016;2024-01-30T00:31:12;4.35;;;2.53;;
54372;SDS011;69157;53.094;10.016;2024-01-30T00:33:39;3.58;;;2.38;;
54372;SDS011;69157;53.094;10.016;2024-01-30T00:36:05;2.65;;;2.28;;
54372;SDS011;69157;53.094;10.016;2024-01-30T00:38:32;4.22;;;2.53;;
54372;SDS011;69157;53.094;10.016;2024-01-30T00:40:58;5.72;;;2.65;;
54372;SDS011;69157;53.094;10.016;2024-01-30T00:43:24;4.70;;;2.20;;
54372;SDS011;69157;53.094;10.016;2024-01-30T00:45:50;5.63;;;2.30;;
54372;SDS011;69157;53.094;10.016;2024-01-30T00:48:17;5.85;;;2.10;;
54372;SDS011;69157;53.094;10.016;2024-01-30T00:50:43;3.85;;;2.25;;
54372;SDS011;69157;53.094;10.016;2024-01-30T00:53:09;6.13;;;3.05;;
54372;SDS011;69157;53.094;10.016;2024-01-30T00:55:36;6.28;;;3.03;;
54372;SDS011;69157;53.094;10.016;2024-01-30T00:58:02;4.80;;;2.38;;
54372;SDS011;69157;53.094;10.016;2024-01-30T01:00:28;3.10;;;2.13;;
54372;SDS011;69157;53.094;10.016;2024-01-30T01:02:57;6.68;;;2.97;;
54372;SDS011;69157;53.094;10.016;2024-01-30T01:05:23;8.43;;;2.88;;
54372;SDS011;69157;53.094;10.016;2024-01-30T01:07:49;4.07;;;3.00;;
54372;SDS011;69157;53.094;10.016;2024-01-30T01:10:16;3.38;;;2.30;;
54372;SDS011;69157;53.094;10.016;2024-01-30T01:12:42;5.13;;;3.10;;
54372;SDS011;69157;53.094;10.016;2024-01-30T01:15:08;5.38;;;2.53;;
54372;SDS011;69157;53.094;10.016;2024-01-30T01:17:38;6.28;;;3.38;;
54372;SDS011;69157;53.094;10.016;2024-01-30T01:20:05;8.75;;;2.97;;
54372;SDS011;69157;53.094;10.016;2024-01-30T01:22:31;4.40;;;3.15;;
54372;SDS011;69157;53.094;10.016;2024-01-30T01:24:57;5.65;;;3.63;;
54372;SDS011;69157;53.094;10.016;2024-01-30T01:27:24;6.53;;;3.30;;
54372;SDS011;69157;53.094;10.016;2024-01-30T01:29:50;6.68;;;3.78;;
54372;SDS011;69157;53.094;10.016;2024-01-30T01:32:16;5.82;;;3.60;;
54372;SDS011;69157;53.094;10.016;2024-01-30T01:34:42;7.70;;;4.32;;
54372;SDS011;69157;53.094;10.016;2024-01-30T01:37:08;4.72;;;3.00;;
54372;SDS011;69157;53.094;10.016;2024-01-30T01:39:33;4.00;;;3.05;;
54372;SDS011;69157;53.094;10.016;2024-01-30T01:41:59;7.07;;;3.90;;
54372;SDS011;69157;53.094;10.016;2024-01-30T01:44:26;4.00;;;3.17;;
54372;SDS011;69157;53.094;10.016;2024-01-30T01:46:52;4.72;;;3.20;;
54372;SDS011;69157;53.094;10.016;2024-01-30T01:49:18;6.22;;;2.78;;
54372;SDS011;69157;53.094;10.016;2024-01-30T01:51:45;5.82;;;2.63;;
54372;SDS011;69157;53.094;10.016;2024-01-30T01:54:12;6.60;;;3.42;;
54372;SDS011;69157;53.094;10.016;2024-01-30T01:56:39;7.97;;;3.35;;
54372;SDS011;69157;53.094;10.016;2024-01-30T01:59:06;9.10;;;3.65;;
54372;SDS011;69157;53.094;10.016;2024-01-30T02:01:33;4.53;;;3.13;;
54372;SDS011;69157;53.094;10.016;2024-01-30T02:03:59;5.55;;;3.28;;
54372;SDS011;69157;53.094;10.016;2024-01-30T02:06:26;7.82;;;2.92;;
54372;SDS011;69157;53.094;10.016;2024-01-30T02:08:52;6.00;;;3.47;;
54372;SDS011;69157;53.094;10.016;2024-01-30T02:11:18;4.65;;;2.80;;
54372;SDS011;69157;53.094;10.016;2024-01-30T02:13:44;7.95;;;3.63;;
54372;SDS011;69157;53.094;10.016;2024-01-30T02:16:12;6.18;;;3.90;;
54372;SDS011;69157;53.094;10.016;2024-01-30T02:18:38;4.13;;;2.95;;
54372;SDS011;69157;53.094;10.016;2024-01-30T02:21:08;6.30;;;3.72;;
54372;SDS011;69157;53.094;10.016;2024-01-30T02:23:34;5.72;;;3.50;;
54372;SDS011;69157;53.094;10.016;2024-01-30T02:26:00;6.03;;;3.08;;
54372;SDS011;69157;53.094;10.016;2024-01-30T02:28:26;14.00;;;3.53;;
54372;SDS011;69157;53.094;10.016;2024-01-30T02:30:52;5.93;;;3.25;;
54372;SDS011;69157;53.094;10.016;2024-01-30T02:33:18;5.25;;;3.38;;
54372;SDS011;69157;53.094;10.016;2024-01-30T02:35:46;5.07;;;3.53;;
54372;SDS011;69157;53.094;10.016;2024-01-30T02:38:12;5.88;;;2.83;;
54372;SDS011;69157;53.094;10.016;2024-01-30T02:40:38;5.30;;;4.10;;
54372;SDS011;69157;53.094;10.016;2024-01-30T02:43:04;9.52;;;3.45;;
54372;SDS011;69157;53.094;10.016;2024-01-30T02:45:30;7.50;;;3.90;;
54372;SDS011;69157;53.094;10.016;2024-01-30T02:47:56;6.18;;;3.85;;
54372;SDS011;69157;53.094;10.016;2024-01-30T02:50:22;6.97;;;3.42;;
54372;SDS011;69157;53.094;10.016;2024-01-30T02:52:48;6.65;;;3.45;;
54372;SDS011;69157;53.094;10.016;2024-01-30T02:55:14;8.18;;;3.65;;
54372;SDS011;69157;53.094;10.016;2024-01-30T02:57:42;5.28;;;3.03;;
54372;SDS011;69157;53.094;10.016;2024-01-30T03:00:08;5.13;;;3.60;;
54372;SDS011;69157;53.094;10.016;2024-01-30T03:02:35;6.30;;;4.07;;
54372;SDS011;69157;53.094;10.016;2024-01-30T03:05:01;7.25;;;4.15;;
54372;SDS011;69157;53.094;10.016;2024-01-30T03:07:28;6.68;;;3.22;;
54372;SDS011;69157;53.094;10.016;2024-01-30T03:09:54;8.00;;;3.80;;
54372;SDS011;69157;53.094;10.016;2024-01-30T03:12:21;9.25;;;4.10;;
54372;SDS011;69157;53.094;10.016;2024-01-30T03:14:46;4.88;;;3.42;;
54372;SDS011;69157;53.094;10.016;2024-01-30T03:17:12;5.90;;;3.95;;
54372;SDS011;69157;53.094;10.016;2024-01-30T03:19:38;6.22;;;3.92;;
54372;SDS011;69157;53.094;10.016;2024-01-30T03:22:04;5.70;;;3.65;;
54372;SDS011;69157;53.094;10.016;2024-01-30T03:24:30;5.18;;;3.20;;
54372;SDS011;69157;53.094;10.016;2024-01-30T03:26:56;4.90;;;3.60;;
54372;SDS011;69157;53.094;10.016;2024-01-30T03:29:22;7.32;;;3.97;;
54372;SDS011;69157;53.094;10.016;2024-01-30T03:31:48;4.55;;;3.47;;
54372;SDS011;69157;53.094;10.016;2024-01-30T03:34:14;7.78;;;5.28;;
54372;SDS011;69157;53.094;10.016;2024-01-30T03:36:40;4.85;;;3.25;;
54372;SDS011;69157;53.094;10.016;2024-01-30T03:39:06;5.40;;;3.72;;
54372;SDS011;69157;53.094;10.016;2024-01-30T03:41:32;7.63;;;4.40;;
54372;SDS011;69157;53.094;10.016;2024-01-30T03:43:58;6.50;;;4.32;;
54372;SDS011;69157;53.094;10.016;2024-01-30T03:46:24;6.75;;;3.47;;
54372;SDS011;69157;53.094;10.016;2024-01-30T03:48:50;11.52;;;3.15;;
54372;SDS011;69157;53.094;10.016;2024-01-30T03:51:16;7.75;;;3.53;;
54372;SDS011;69157;53.094;10.016;2024-01-30T03:53:43;6.88;;;3.60;;
54372;SDS011;69157;53.094;10.016;2024-01-30T03:56:09;6.55;;;3.40;;
54372;SDS011;69157;53.094;10.016;2024-01-30T03:58:35;10.00;;;4.80;;
54372;SDS011;69157;53.094;10.016;2024-01-30T04:01:01;10.05;;;2.95;;
54372;SDS011;69157;53.094;10.016;2024-01-30T04:03:27;11.65;;;5.15;;
54372;SDS011;69157;53.094;10.016;2024-01-30T04:05:53;7.97;;;4.35;;
54372;SDS011;69157;53.094;10.016;2024-01-30T04:08:19;7.10;;;4.30;;
54372;SDS011;69157;53.094;10.016;2024-01-30T04:10:46;10.10;;;4.13;;
54372;SDS011;69157;53.094;10.016;2024-01-30T04:13:12;7.55;;;3.95;;
54372;SDS011;69157;53.094;10.016;2024-01-30T04:15:38;5.35;;;3.17;;
54372;SDS011;69157;53.094;10.016;2024-01-30T04:18:04;8.13;;;3.53;;
54372;SDS011;69157;53.094;10.016;2024-01-30T04:20:30;8.80;;;4.05;;
54372;SDS011;69157;53.094;10.016;2024-01-30T04:22:56;10.35;;;4.65;;
54372;SDS011;69157;53.094;10.016;2024-01-30T04:25:22;8.25;;;4.28;;
54372;SDS011;69157;53.094;10.016;2024-01-30T04:27:48;8.25;;;3.85;;
54372;SDS011;69157;53.094;10.016;2024-01-30T04:30:14;8.35;;;4.22;;
54372;SDS011;69157;53.094;10.016;2024-01-30T04:32:40;16.70;;;4.85;;
54372;SDS011;69157;53.094;10.016;2024-01-30T04:35:06;9.30;;;4.32;;
54372;SDS011;69157;53.094;10.016;2024-01-30T04:37:32;7.35;;;4.47;;
54372;SDS011;69157;53.094;10.016;2024-01-30T04:39:58;8.20;;;4.40;;
54372;SDS011;69157;53.094;10.016;2024-01-30T04:42:24;9.13;;;4.55;;
54372;SDS011;69157;53.094;10.016;2024-01-30T04:44:50;7.70;;;4.45;;
54372;SDS011;69157;53.094;10.016;2024-01-30T04:47:16;7.53;;;4.20;;
54372;SDS011;69157;53.094;10.016;2024-01-30T04:49:43;9.30;;;4.95;;
54372;SDS011;69157;53.094;10.016;2024-01-30T04:52:09;6.88;;;3.65;;
54372;SDS011;69157;53.094;10.016;2024-01-30T04:54:35;8.13;;;4.32;;
54372;SDS011;69157;53.094;10.016;2024-01-30T04:57:01;5.32;;;3.20;;
54372;SDS011;69157;53.094;10.016;2024-01-30T04:59:27;7.03;;;4.47;;
54372;SDS011;69157;53.094;10.016;2024-01-30T05:01:54;10.18;;;4.88;;
54372;SDS011;69157;53.094;10.016;2024-01-30T05:04:20;15.95;;;4.78;;
54372;SDS011;69157;53.094;10.016;2024-01-30T05:06:47;12.32;;;5.18;;
54372;SDS011;69157;53.094;10.016;2024-01-30T05:09:12;10.80;;;4.57;;
54372;SDS011;69157;53.094;10.016;2024-01-30T05:11:39;5.72;;;3.58;;
54372;SDS011;69157;53.094;10.016;2024-01-30T05:14:05;7.63;;;4.00;;
54372;SDS011;69157;53.094;10.016;2024-01-30T05:16:31;7.30;;;4.20;;
54372;SDS011;69157;53.094;10.016;2024-01-30T05:18:58;7.75;;;4.43;;
54372;SDS011;69157;53.094;10.016;2024-01-30T05:21:24;7.07;;;4.28;;
54372;SDS011;69157;53.094;10.016;2024-01-30T05:23:50;11.90;;;4.38;;
54372;SDS011;69157;53.094;10.016;2024-01-30T05:26:16;6.45;;;4.47;;
54372;SDS011;69157;53.094;10.016;2024-01-30T05:28:42;9.65;;;4.78;;
54372;SDS011;69157;53.094;10.016;2024-01-30T05:31:09;9.93;;;4.72;;
54372;SDS011;69157;53.094;10.016;2024-01-30T05:33:35;10.95;;;5.03;;
54372;SDS011;69157;53.094;10.016;2024-01-30T05:36:01;9.25;;;4.57;;
54372;SDS011;69157;53.094;10.016;2024-01-30T05:38:28;9.88;;;4.85;;
54372;SDS011;69157;53.094;10.016;2024-01-30T05:40:56;11.02;;;4.18;;
54372;SDS011;69157;53.094;10.016;2024-01-30T05:43:25;9.35;;;4.22;;
54372;SDS011;69157;53.094;10.016;2024-01-30T05:45:51;8.55;;;4.07;;
54372;SDS011;69157;53.094;10.016;2024-01-30T05:48:17;9.52;;;4.38;;
54372;SDS011;69157;53.094;10.016;2024-01-30T05:50:43;8.95;;;4.15;;
54372;SDS011;69157;53.094;10.016;2024-01-30T05:53:10;7.93;;;4.68;;
54372;SDS011;69157;53.094;10.016;2024-01-30T05:55:36;9.80;;;4.28;;
54372;SDS011;69157;53.094;10.016;2024-01-30T05:58:02;10.02;;;5.07;;
54372;SDS011;69157;53.094;10.016;2024-01-30T06:00:29;8.35;;;4.13;;
54372;SDS011;69157;53.094;10.016;2024-01-30T06:02:55;11.90;;;3.78;;
54372;SDS011;69157;53.094;10.016;2024-01-30T06:05:21;7.90;;;4.03;;
54372;SDS011;69157;53.094;10.016;2024-01-30T06:07:47;6.13;;;3.20;;
54372;SDS011;69157;53.094;10.016;2024-01-30T06:10:13;9.55;;;3.92;;
54372;SDS011;69157;53.094;10.016;2024-01-30T06:12:39;7.78;;;4.55;;
54372;SDS011;69157;53.094;10.016;2024-01-30T06:15:05;7.25;;;4.60;;
54372;SDS011;69157;53.094;10.016;2024-01-30T06:17:31;8.63;;;4.30;;
54372;SDS011;69157;53.094;10.016;2024-01-30T06:19:57;6.47;;;3.40;;
54372;SDS011;69157;53.094;10.016;2024-01-30T06:22:23;6.90;;;3.80;;
54372;SDS011;69157;53.094;10.016;2024-01-30T06:24:49;7.97;;;3.55;;
54372;SDS011;69157;53.094;10.016;2024-01-30T06:27:15;11.15;;;4.97;;
54372;SDS011;69157;53.094;10.016;2024-01-30T06:29:42;9.32;;;3.85;;
54372;SDS011;69157;53.094;10.016;2024-01-30T06:32:08;5.38;;;3.30;;
54372;SDS011;69157;53.094;10.016;2024-01-30T06:34:34;8.25;;;3.75;;
54372;SDS011;69157;53.094;10.016;2024-01-30T06:37:00;7.90;;;4.07;;
54372;SDS011;69157;53.094;10.016;2024-01-30T06:39:27;6.43;;;3.95;;
54372;SDS011;69157;53.094;10.016;2024-01-30T06:41:54;9.60;;;4.35;;
54372;SDS011;69157;53.094;10.016;2024-01-30T06:44:20;8.63;;;4.63;;
54372;SDS011;69157;53.094;10.016;2024-01-30T06:46:46;7.10;;;4.25;;
54372;SDS011;69157;53.094;10.016;2024-01-30T06:49:12;6.93;;;3.85;;
54372;SDS011;69157;53.094;10.016;2024-01-30T06:51:38;7.18;;;3.85;;
54372;SDS011;69157;53.094;10.016;2024-01-30T06:54:04;10.07;;;4.20;;
54372;SDS011;69157;53.094;10.016;2024-01-30T06:56:30;9.82;;;4.65;;
54372;SDS011;69157;53.094;10.016;2024-01-30T06:58:56;6.53;;;4.15;;
54372;SDS011;69157;53.094;10.016;2024-01-30T07:01:28;6.55;;;3.88;;
54372;SDS011;69157;53.094;10.016;2024-01-30T07:03:54;8.00;;;4.55;;
54372;SDS011;69157;53.094;10.016;2024-01-30T07:06:20;8.32;;;5.03;;
54372;SDS011;69157;53.094;10.016;2024-01-30T07:08:47;11.23;;;5.32;;
54372;SDS011;69157;53.094;10.016;2024-01-30T07:11:18;9.55;;;3.92;;
54372;SDS011;69157;53.094;10.016;2024-01-30T07:13:44;9.13;;;4.88;;
54372;SDS011;69157;53.094;10.016;2024-01-30T07:16:09;9.18;;;5.20;;
54372;SDS011;69157;53.094;10.016;2024-01-30T07:18:35;10.18;;;5.10;;
54372;SDS011;69157;53.094;10.016;2024-01-30T07:21:01;11.25;;;4.95;;
54372;SDS011;69157;53.094;10.016;2024-01-30T07:23:29;11.07;;;4.55;;
54372;SDS011;69157;53.094;10.016;2024-01-30T07:25:55;13.25;;;4.88;;
54372;SDS011;69157;53.094;10.016;2024-01-30T07:28:21;9.60;;;5.10;;
54372;SDS011;69157;53.094;10.016;2024-01-30T07:30:47;7.70;;;4.60;;
54372;SDS011;69157;53.094;10.016;2024-01-30T07:33:13;8.90;;;5.28;;
54372;SDS011;69157;53.094;10.016;2024-01-30T07:35:39;10.23;;;4.10;;
54372;SDS011;69157;53.094;10.016;2024-01-30T07:38:05;10.90;;;5.25;;
54372;SDS011;69157;53.094;10.016;2024-01-30T07:40:31;10.65;;;4.80;;
54372;SDS011;69157;53.094;10.016;2024-01-30T07:42:58;9.25;;;4.45;;
54372;SDS011;69157;53.094;10.016;2024-01-30T07:45:24;7.40;;;4.40;;
54372;SDS011;69157;53.094;10.016;2024-01-30T07:47:51;8.80;;;4.80;;
54372;SDS011;69157;53.094;10.016;2024-01-30T07:50:17;10.57;;;4.60;;
54372;SDS011;69157;53.094;10.016;2024-01-30T07:52:44;10.35;;;5.10;;
54372;SDS011;69157;53.094;10.016;2024-01-30T07:55:10;7.47;;;4.82;;
54372;SDS011;69157;53.094;10.016;2024-01-30T07:57:38;7.35;;;4.30;;
54372;SDS011;69157;53.094;10.016;2024-01-30T08:00:05;7.65;;;4.40;;
54372;SDS011;69157;53.094;10.016;2024-01-30T08:02:32;7.93;;;3.88;;
54372;SDS011;69157;53.094;10.016;2024-01-30T08:04:58;7.53;;;4.10;;
54372;SDS011;69157;53.094;10.016;2024-01-30T08:07:24;10.80;;;4.65;;
54372;SDS011;69157;53.094;10.016;2024-01-30T08:09:50;8.23;;;4.60;;
54372;SDS011;69157;53.094;10.016;2024-01-30T08:12:16;7.35;;;4.53;;
54372;SDS011;69157;53.094;10.016;2024-01-30T08:14:42;8.18;;;4.47;;
54372;SDS011;69157;53.094;10.016;2024-01-30T08:17:08;9.88;;;4.63;;
54372;SDS011;69157;53.094;10.016;2024-01-30T08:19:34;8.00;;;5.13;;
54372;SDS011;69157;53.094;10.016;2024-01-30T08:22:00;10.90;;;4.55;;
54372;SDS011;69157;53.094;10.016;2024-01-30T08:24:25;12.40;;;5.05;;
54372;SDS011;69157;53.094;10.016;2024-01-30T08:26:51;8.00;;;4.78;;
54372;SDS011;69157;53.094;10.016;2024-01-30T08:29:17;11.70;;;5.00;;
54372;SDS011;69157;53.094;10.016;2024-01-30T08:31:43;6.35;;;3.97;;
54372;SDS011;69157;53.094;10.016;2024-01-30T08:34:11;11.23;;;5.15;;
54372;SDS011;69157;53.094;10.016;2024-01-30T08:36:37;9.52;;;4.55;;
54372;SDS011;69157;53.094;10.016;2024-01-30T08:39:02;8.70;;;5.00;;
54372;SDS011;69157;53.094;10.016;2024-01-30T08:41:30;8.55;;;5.13;;
54372;SDS011;69157;53.094;10.016;2024-01-30T08:43:56;8.52;;;4.63;;
54372;SDS011;69157;53.094;10.016;2024-01-30T08:46:22;9.95;;;4.70;;
54372;SDS011;69157;53.094;10.016;2024-01-30T08:48:48;10.25;;;5.13;;
54372;SDS011;69157;53.094;10.016;2024-01-30T08:51:14;7.85;;;4.28;;
54372;SDS011;69157;53.094;10.016;2024-01-30T08:53:40;8.57;;;4.07;;
54372;SDS011;69157;53.094;10.016;2024-01-30T08:56:06;8.68;;;4.07;;
54372;SDS011;69157;53.094;10.016;2024-01-30T08:58:32;7.95;;;3.65;;
54372;SDS011;69157;53.094;10.016;2024-01-30T09:00:58;8.52;;;4.50;;
54372;SDS011;69157;53.094;10.016;2024-01-30T09:03:24;9.30;;;5.15;;
54372;SDS011;69157;53.094;10.016;2024-01-30T09:05:50;6.38;;;4.80;;
54372;SDS011;69157;53.094;10.016;2024-01-30T09:08:16;7.35;;;4.70;;
54372;SDS011;69157;53.094;10.016;2024-01-30T09:10:42;8.20;;;5.07;;
54372;SDS011;69157;53.094;10.016;2024-01-30T09:13:09;6.88;;;4.07;;
54372;SDS011;69157;53.094;10.016;2024-01-30T09:15:35;10.48;;;4.25;;
54372;SDS011;69157;53.094;10.016;2024-01-30T09:18:01;6.80;;;4.10;;
54372;SDS011;69157;53.094;10.016;2024-01-30T09:20:27;10.43;;;4.70;;
54372;SDS011;69157;53.094;10.016;2024-01-30T09:22:53;8.55;;;4.65;;
54372;SDS011;69157;53.094;10.016;2024-01-30T09:25:19;10.57;;;4.32;;
54372;SDS011;69157;53.094;10.016;2024-01-30T09:27:45;10.55;;;5.03;;
54372;SDS011;69157;53.094;10.016;2024-01-30T09:30:11;8.43;;;4.63;;
54372;SDS011;69157;53.094;10.016;2024-01-30T09:32:37;11.55;;;4.82;;
54372;SDS011;69157;53.094;10.016;2024-01-30T09:35:03;9.20;;;4.63;;
54372;SDS011;69157;53.094;10.016;2024-01-30T09:37:29;11.38;;;5.50;;
54372;SDS011;69157;53.094;10.016;2024-01-30T09:39:55;9.00;;;5.00;;
54372;SDS011;69157;53.094;10.016;2024-01-30T09:42:26;7.82;;;4.35;;
54372;SDS011;69157;53.094;10.016;2024-01-30T09:44:53;7.82;;;4.13;;
54372;SDS011;69157;53.094;10.016;2024-01-30T09:47:20;8.90;;;4.50;;
54372;SDS011;69157;53.094;10.016;2024-01-30T09:49:46;5.85;;;3.67;;
54372;SDS011;69157;53.094;10.016;2024-01-30T09:52:12;10.00;;;3.95;;
54372;SDS011;69157;53.094;10.016;2024-01-30T09:54:38;10.00;;;5.18;;
54372;SDS011;69157;53.094;10.016;2024-01-30T09:57:04;9.15;;;4.35;;
54372;SDS011;69157;53.094;10.016;2024-01-30T09:59:30;9.23;;;3.75;;
54372;SDS011;69157;53.094;10.016;2024-01-30T10:01:57;9.07;;;4.57;;
54372;SDS011;69157;53.094;10.016;2024-01-30T10:04:23;6.47;;;3.75;;
54372;SDS011;69157;53.094;10.016;2024-01-30T10:06:49;7.15;;;4.65;;
54372;SDS011;69157;53.094;10.016;2024-01-30T10:09:16;9.85;;;3.72;;
54372;SDS011;69157;53.094;10.016;2024-01-30T10:11:42;6.55;;;4.13;;
54372;SDS011;69157;53.094;10.016;2024-01-30T10:14:08;8.65;;;4.28;;
54372;SDS011;69157;53.094;10.016;2024-01-30T10:16:34;8.07;;;4.03;;
54372;SDS011;69157;53.094;10.016;2024-01-30T10:19:00;8.30;;;3.92;;
54372;SDS011;69157;53.094;10.016;2024-01-30T10:21:26;9.27;;;4.63;;
54372;SDS011;69157;53.094;10.016;2024-01-30T10:23:52;8.65;;;4.00;;
54372;SDS011;69157;53.094;10.016;2024-01-30T10:26:18;7.57;;;4.30;;
54372;SDS011;69157;53.094;10.016;2024-01-30T10:28:44;9.93;;;3.38;;
54372;SDS011;69157;53.094;10.016;2024-01-30T10:31:10;9.05;;;3.95;;
54372;SDS011;69157;53.094;10.016;2024-01-30T10:33:36;9.68;;;3.78;;
54372;SDS011;69157;53.094;10.016;2024-01-30T10:36:03;7.97;;;3.97;;
54372;SDS011;69157;53.094;10.016;2024-01-30T10:38:29;7.80;;;3.95;;
54372;SDS011;69157;53.094;10.016;2024-01-30T10:40:56;8.52;;;3.85;;
54372;SDS011;69157;53.094;10.016;2024-01-30T10:43:22;8.48;;;4.57;;
54372;SDS011;69157;53.094;10.016;2024-01-30T10:45:49;11.38;;;4.38;;
54372;SDS011;69157;53.094;10.016;2024-01-30T10:48:15;6.68;;;3.80;;
54372;SDS011;69157;53.094;10.016;2024-01-30T10:50:42;10.85;;;4.18;;
54372;SDS011;69157;53.094;10.016;2024-01-30T10:53:08;7.10;;;4.05;;
54372;SDS011;69157;53.094;10.016;2024-01-30T10:55:35;7.78;;;3.40;;
54372;SDS011;69157;53.094;10.016;2024-01-30T10:58:02;8.45;;;3.80;;
54372;SDS011;69157;53.094;10.016;2024-01-30T11:00:28;6.53;;;3.53;;
54372;SDS011;69157;53.094;10.016;2024-01-30T11:02:54;9.77;;;3.88;;
54372;SDS011;69157;53.094;10.016;2024-01-30T11:05:24;10.13;;;4.03;;
54372;SDS011;69157;53.094;10.016;2024-01-30T11:07:51;10.10;;;4.03;;
54372;SDS011;69157;53.094;10.016;2024-01-30T11:10:17;5.28;;;3.35;;
54372;SDS011;69157;53.094;10.016;2024-01-30T11:12:43;7.50;;;3.47;;
54372;SDS011;69157;53.094;10.016;2024-01-30T11:15:12;7.22;;;3.55;;
54372;SDS011;69157;53.094;10.016;2024-01-30T11:20:26;6.75;;;3.78;;
54372;SDS011;69157;53.094;10.016;2024-01-30T11:22:53;7.63;;;3.38;;
54372;SDS011;69157;53.094;10.016;2024-01-30T11:25:20;5.43;;;3.28;;
54372;SDS011;69157;53.094;10.016;2024-01-30T11:27:47;6.95;;;3.58;;
54372;SDS011;69157;53.094;10.016;2024-01-30T11:30:30;12.13;;;3.63;;
54372;SDS011;69157;53.094;10.016;2024-01-30T11:33:03;6.50;;;3.65;;
54372;SDS011;69157;53.094;10.016;2024-01-30T11:35:33;5.22;;;3.17;;
54372;SDS011;69157;53.094;10.016;2024-01-30T11:37:59;6.97;;;3.63;;
54372;SDS011;69157;53.094;10.016;2024-01-30T11:40:28;5.82;;;2.58;;
54372;SDS011;69157;53.094;10.016;2024-01-30T11:42:58;6.35;;;3.50;;
54372;SDS011;69157;53.094;10.016;2024-01-30T11:45:24;5.43;;;3.00;;
54372;SDS011;69157;53.094;10.016;2024-01-30T11:47:50;5.82;;;3.25;;
54372;SDS011;69157;53.094;10.016;2024-01-30T11:50:16;7.35;;;3.42;;
54372;SDS011;69157;53.094;10.016;2024-01-30T11:52:42;5.47;;;3.20;;
54372;SDS011;69157;53.094;10.016;2024-01-30T11:55:08;4.22;;;2.70;;
54372;SDS011;69157;53.094;10.016;2024-01-30T11:57:34;4.53;;;3.03;;
54372;SDS011;69157;53.094;10.016;2024-01-30T12:00:02;6.68;;;3.20;;
54372;SDS011;69157;53.094;10.016;2024-01-30T12:02:33;7.03;;;3.20;;
54372;SDS011;69157;53.094;10.016;2024-01-30T12:05:03;5.13;;;2.60;;
54372;SDS011;69157;53.094;10.016;2024-01-30T12:07:29;6.33;;;2.93;;
54372;SDS011;69157;53.094;10.016;2024-01-30T12:09:55;6.35;;;2.72;;
54372;SDS011;69157;53.094;10.016;2024-01-30T12:12:22;6.90;;;2.67;;
54372;SDS011;69157;53.094;10.016;2024-01-30T12:14:48;8.05;;;3.58;;
54372;SDS011;69157;53.094;10.016;2024-01-30T12:17:26;6.97;;;3.22;;
54372;SDS011;69157;53.094;10.016;2024-01-30T12:20:02;4.53;;;2.88;;
54372;SDS011;69157;53.094;10.016;2024-01-30T12:22:28;4.50;;;2.97;;
54372;SDS011;69157;53.094;10.016;2024-01-30T12:24:54;6.22;;;2.85;;
54372;SDS011;69157;53.094;10.016;2024-01-30T12:27:19;5.15;;;2.75;;
54372;SDS011;69157;53.094;10.016;2024-01-30T12:29:45;6.25;;;3.30;;
54372;SDS011;69157;53.094;10.016;2024-01-30T12:32:15;5.75;;;2.92;;
54372;SDS011;69157;53.094;10.016;2024-01-30T12:34:41;6.18;;;2.83;;
54372;SDS011;69157;53.094;10.016;2024-01-30T12:37:07;7.90;;;2.92;;
54372;SDS011;69157;53.094;10.016;2024-01-30T12:39:34;5.82;;;3.15;;
54372;SDS011;69157;53.094;10.016;2024-01-30T12:42:01;5.53;;;3.20;;
54372;SDS011;69157;53.094;10.016;2024-01-30T12:44:28;7.15;;;3.05;;
54372;SDS011;69157;53.094;10.016;2024-01-30T12:46:54;4.03;;;2.60;;
54372;SDS011;69157;53.094;10.016;2024-01-30T12:49:20;5.07;;;2.85;;
54372;SDS011;69157;53.094;10.016;2024-01-30T12:51:46;5.70;;;3.13;;
54372;SDS011;69157;53.094;10.016;2024-01-30T12:54:12;5.22;;;2.65;;
54372;SDS011;69157;53.094;10.016;2024-01-30T12:56:38;4.20;;;2.97;;
54372;SDS011;69157;53.094;10.016;2024-01-30T12:59:04;8.95;;;3.47;;
54372;SDS011;69157;53.094;10.016;2024-01-30T13:01:30;5.75;;;2.95;;
54372;SDS011;69157;53.094;10.016;2024-01-30T13:03:56;6.00;;;2.92;;
54372;SDS011;69157;53.094;10.016;2024-01-30T13:06:23;5.68;;;2.88;;
54372;SDS011;69157;53.094;10.016;2024-01-30T13:08:49;5.13;;;2.67;;
54372;SDS011;69157;53.094;10.016;2024-01-30T13:11:15;5.15;;;3.00;;
54372;SDS011;69157;53.094;10.016;2024-01-30T13:13:41;7.93;;;3.22;;
54372;SDS011;69157;53.094;10.016;2024-01-30T13:16:07;5.18;;;2.78;;
54372;SDS011;69157;53.094;10.016;2024-01-30T13:18:33;4.78;;;2.90;;
54372;SDS011;69157;53.094;10.016;2024-01-30T13:20:59;6.43;;;3.08;;
54372;SDS011;69157;53.094;10.016;2024-01-30T13:23:25;4.80;;;3.05;;
54372;SDS011;69157;53.094;10.016;2024-01-30T13:25:51;6.22;;;3.50;;
54372;SDS011;69157;53.094;10.016;2024-01-30T13:28:18;7.70;;;3.08;;
54372;SDS011;69157;53.094;10.016;2024-01-30T13:30:44;3.80;;;2.75;;
54372;SDS011;69157;53.094;10.016;2024-01-30T13:33:10;6.32;;;3.10;;
54372;SDS011;69157;53.094;10.016;2024-01-30T13:35:37;6.80;;;2.67;;
54372;SDS011;69157;53.094;10.016;2024-01-30T13:38:03;7.13;;;3.50;;
54372;SDS011;69157;53.094;10.016;2024-01-30T13:40:29;7.22;;;3.10;;
54372;SDS011;69157;53.094;10.016;2024-01-30T13:42:55;6.57;;;2.60;;
54372;SDS011;69157;53.094;10.016;2024-01-30T13:45:21;4.90;;;3.03;;
54372;SDS011;69157;53.094;10.016;2024-01-30T13:47:46;5.30;;;3.03;;
54372;SDS011;69157;53.094;10.016;2024-01-30T13:50:12;4.95;;;2.88;;
54372;SDS011;69157;53.094;10.016;2024-01-30T13:52:41;4.88;;;3.10;;
54372;SDS011;69157;53.094;10.016;2024-01-30T13:55:08;5.15;;;3.00;;
54372;SDS011;69157;53.094;10.016;2024-01-30T13:57:34;7.20;;;3.17;;
54372;SDS011;69157;53.094;10.016;2024-01-30T14:00:01;7.15;;;3.17;;
54372;SDS011;69157;53.094;10.016;2024-01-30T14:02:28;5.30;;;2.92;;
54372;SDS011;69157;53.094;10.016;2024-01-30T14:04:54;5.22;;;2.92;;
54372;SDS011;69157;53.094;10.016;2024-01-30T14:07:19;7.38;;;3.22;;
54372;SDS011;69157;53.094;10.016;2024-01-30T14:09:45;6.38;;;3.70;;
54372;SDS011;69157;53.094;10.016;2024-01-30T14:12:11;5.88;;;3.47;;
54372;SDS011;69157;53.094;10.016;2024-01-30T14:14:37;8.80;;;3.83;;
54372;SDS011;69157;53.094;10.016;2024-01-30T14:17:03;8.60;;;3.83;;
54372;SDS011;69157;53.094;10.016;2024-01-30T14:19:31;5.90;;;3.03;;
54372;SDS011;69157;53.094;10.016;2024-01-30T14:21:57;5.40;;;3.15;;
54372;SDS011;69157;53.094;10.016;2024-01-30T14:24:23;5.03;;;3.15;;
54372;SDS011;69157;53.094;10.016;2024-01-30T14:26:49;6.13;;;2.83;;
54372;SDS011;69157;53.094;10.016;2024-01-30T14:29:15;5.97;;;3.28;;
54372;SDS011;69157;53.094;10.016;2024-01-30T14:31:41;5.57;;;3.50;;